Time;durP1;ratioP1;P1;durP2;ratioP2;P2;SDS_P1;SDS_P2;PMS_P1;PMS_P2;Temp;Humidity;BMP_temperature;BMP_pressure;BME280_temperature;BME280_humidity;BME280_pressure;Samples;Min_cycle;Max_cycle;Signal;HPM_P1;HPM_P2
2021/12/01 00:01:13;;;;;;;1.58;0.75;;;;;;;;;;5031674;28;20050;-65
2021/12/01 00:03:42;;;;;;;2.33;0.90;;;;;;;;;;5031565;28;20049;-65
2021/12/01 00:06:10;;;;;;;1.80;0.80;;;;;;;;;;5031418;28;20052;-66
2021/12/01 00:08:37;;;;;;;1.27;0.70;;;;;;;;;;5032289;28;20561;-67
2021/12/01 00:11:04;;;;;;;1.65;0.65;;;;;;;;;;5031466;28;20088;-67
2021/12/01 00:13:33;;;;;;;1.30;0.60;;;;;;;;;;5031519;28;20444;-66
2021/12/01 00:16:00;;;;;;;0.88;0.50;;;;;;;;;;5031809;28;20057;-67
2021/12/01 00:18:27;;;;;;;1.08;0.60;;;;;;;;;;5033225;28;20053;-65
2021/12/01 00:20:55;;;;;;;1.02;0.60;;;;;;;;;;5035175;28;20479;-68
2021/12/01 00:23:22;;;;;;;1.00;0.60;;;;;;;;;;5035043;28;20055;-66
2021/12/01 00:25:49;;;;;;;0.70;0.50;;;;;;;;;;5034563;28;20517;-68
2021/12/01 00:28:17;;;;;;;0.52;0.40;;;;;;;;;;5034696;28;20309;-66
2021/12/01 00:30:45;;;;;;;0.85;0.52;;;;;;;;;;5034950;28;20053;-67
2021/12/01 00:33:13;;;;;;;0.85;0.52;;;;;;;;;;5034934;28;20049;-67
2021/12/01 00:35:40;;;;;;;1.13;0.50;;;;;;;;;;5034564;28;20128;-66
2021/12/01 00:38:09;;;;;;;0.80;0.50;;;;;;;;;;5034569;28;20041;-64
2021/12/01 00:43:18;;;;;;;1.52;0.60;;;;;;;;;;5030972;28;20056;-69
2021/12/01 00:45:53;;;;;;;0.52;0.40;;;;;;;;;;5033980;28;20148;-68
2021/12/01 00:48:21;;;;;;;1.00;0.50;;;;;;;;;;5035053;28;20096;-68
2021/12/01 00:50:49;;;;;;;0.60;0.45;;;;;;;;;;5034832;28;20053;-68
2021/12/01 00:53:17;;;;;;;0.68;0.40;;;;;;;;;;5035073;28;20059;-66
2021/12/01 00:55:44;;;;;;;1.40;0.50;;;;;;;;;;5035316;28;20048;-66
2021/12/01 00:58:12;;;;;;;0.35;0.30;;;;;;;;;;5034617;28;20053;-66
2021/12/01 01:00:41;;;;;;;0.80;0.40;;;;;;;;;;5034707;28;20091;-67
2021/12/01 01:03:09;;;;;;;1.38;0.43;;;;;;;;;;5034243;28;20100;-66
2021/12/01 01:05:37;;;;;;;1.13;0.40;;;;;;;;;;5034346;28;20072;-66
2021/12/01 01:08:04;;;;;;;1.05;0.55;;;;;;;;;;5033764;28;20413;-66
2021/12/01 01:10:57;;;;;;;0.65;0.40;;;;;;;;;;5034183;28;20071;-67
2021/12/01 01:16:23;;;;;;;0.40;0.40;;;;;;;;;;5034274;28;20418;-67
2021/12/01 01:18:52;;;;;;;0.40;0.40;;;;;;;;;;5034000;28;20103;-66
2021/12/01 01:21:20;;;;;;;0.45;0.40;;;;;;;;;;5034110;28;20045;-66
2021/12/01 01:23:48;;;;;;;0.88;0.30;;;;;;;;;;5034157;28;20047;-66
2021/12/01 01:26:18;;;;;;;0.75;0.47;;;;;;;;;;5033867;28;20076;-67
2021/12/01 01:28:45;;;;;;;0.40;0.38;;;;;;;;;;5033751;28;20066;-67
2021/12/01 01:31:13;;;;;;;1.67;0.60;;;;;;;;;;5032868;28;20483;-67
2021/12/01 01:33:41;;;;;;;0.75;0.45;;;;;;;;;;5033915;28;20051;-67
2021/12/01 01:36:09;;;;;;;0.85;0.40;;;;;;;;;;5034044;28;20059;-67
2021/12/01 01:38:36;;;;;;;1.65;0.88;;;;;;;;;;5034168;28;20132;-67
2021/12/01 01:41:06;;;;;;;1.08;0.57;;;;;;;;;;5033933;28;20049;-67
2021/12/01 01:43:35;;;;;;;0.40;0.40;;;;;;;;;;5033916;28;20089;-67
2021/12/01 01:46:02;;;;;;;0.90;0.50;;;;;;;;;;5034018;28;20088;-67
2021/12/01 01:48:31;;;;;;;0.85;0.40;;;;;;;;;;5033731;28;20407;-67
2021/12/01 01:51:00;;;;;;;1.02;0.50;;;;;;;;;;5033918;28;20061;-67
2021/12/01 01:53:28;;;;;;;1.08;0.60;;;;;;;;;;5033284;28;20137;-67
2021/12/01 01:55:57;;;;;;;0.88;0.50;;;;;;;;;;5033578;28;20494;-67
2021/12/01 01:58:25;;;;;;;0.88;0.45;;;;;;;;;;5033252;28;20493;-67
2021/12/01 02:01:06;;;;;;;1.05;0.50;;;;;;;;;;5033527;28;20045;-67
2021/12/01 02:03:34;;;;;;;1.10;0.55;;;;;;;;;;5033412;28;20061;-67
2021/12/01 02:06:01;;;;;;;0.85;0.50;;;;;;;;;;5033276;28;20404;-67
2021/12/01 02:08:31;;;;;;;0.90;0.45;;;;;;;;;;5032922;28;20089;-67
2021/12/01 02:10:59;;;;;;;0.55;0.40;;;;;;;;;;5033401;28;20053;-67
2021/12/01 02:13:27;;;;;;;0.63;0.50;;;;;;;;;;5032842;28;20391;-67
2021/12/01 02:15:57;;;;;;;0.70;0.40;;;;;;;;;;5032917;28;20434;-67
2021/12/01 02:18:24;;;;;;;0.70;0.40;;;;;;;;;;5032580;28;20053;-67
2021/12/01 02:21:06;;;;;;;0.77;0.50;;;;;;;;;;5033058;28;20045;-67
2021/12/01 02:23:35;;;;;;;0.52;0.40;;;;;;;;;;5032784;28;20052;-67
2021/12/01 02:26:03;;;;;;;1.52;0.47;;;;;;;;;;5032908;28;20050;-67
2021/12/01 02:28:30;;;;;;;1.20;0.60;;;;;;;;;;5032480;28;20107;-67
2021/12/01 02:30:57;;;;;;;0.30;0.30;;;;;;;;;;5032778;28;20049;-67
2021/12/01 02:33:25;;;;;;;0.63;0.30;;;;;;;;;;5032590;28;20086;-67
2021/12/01 02:35:52;;;;;;;1.13;0.52;;;;;;;;;;5032674;28;20061;-67
2021/12/01 02:38:21;;;;;;;0.85;0.50;;;;;;;;;;5032189;28;20625;-67
2021/12/01 02:40:48;;;;;;;0.47;0.38;;;;;;;;;;5032505;28;20046;-67
2021/12/01 02:43:16;;;;;;;0.90;0.45;;;;;;;;;;5032471;28;20100;-67
2021/12/01 02:45:43;;;;;;;0.45;0.40;;;;;;;;;;5032364;28;20510;-67
2021/12/01 02:48:13;;;;;;;0.70;0.40;;;;;;;;;;5032197;28;20052;-67
2021/12/01 02:50:43;;;;;;;0.50;0.30;;;;;;;;;;5032713;28;20057;-67
2021/12/01 02:53:10;;;;;;;0.30;0.30;;;;;;;;;;5032643;28;20049;-67
2021/12/01 02:55:42;;;;;;;0.50;0.40;;;;;;;;;;5032621;28;20049;-67
2021/12/01 02:58:09;;;;;;;0.95;0.38;;;;;;;;;;5032017;28;20081;-67
2021/12/01 03:00:36;;;;;;;0.30;0.30;;;;;;;;;;5032527;28;20072;-67
2021/12/01 03:03:05;;;;;;;0.30;0.30;;;;;;;;;;5032232;28;20057;-67
2021/12/01 03:05:32;;;;;;;0.73;0.40;;;;;;;;;;5032262;28;20045;-67
2021/12/01 03:07:59;;;;;;;0.47;0.35;;;;;;;;;;5031961;28;20045;-67
2021/12/01 03:10:26;;;;;;;0.40;0.30;;;;;;;;;;5032340;28;20056;-67
2021/12/01 03:12:55;;;;;;;0.30;0.30;;;;;;;;;;5032115;28;20099;-67
2021/12/01 03:15:22;;;;;;;1.30;0.40;;;;;;;;;;5032136;28;20461;-67
2021/12/01 03:17:49;;;;;;;0.82;0.40;;;;;;;;;;5032231;28;20049;-67
2021/12/01 03:20:20;;;;;;;0.47;0.30;;;;;;;;;;5032162;28;20494;-67
2021/12/01 03:22:47;;;;;;;0.57;0.50;;;;;;;;;;5032068;28;20054;-67
2021/12/01 03:25:16;;;;;;;0.75;0.40;;;;;;;;;;5031997;28;20477;-67
2021/12/01 03:27:43;;;;;;;0.60;0.40;;;;;;;;;;5031788;28;20092;-67
2021/12/01 03:30:13;;;;;;;0.57;0.50;;;;;;;;;;5031843;28;20045;-67
2021/12/01 03:32:41;;;;;;;1.05;0.35;;;;;;;;;;5031956;28;20050;-67
2021/12/01 03:35:10;;;;;;;0.88;0.50;;;;;;;;;;5032190;28;20045;-67
2021/12/01 03:37:38;;;;;;;0.82;0.40;;;;;;;;;;5031453;28;20445;-67
2021/12/01 03:40:07;;;;;;;0.82;0.50;;;;;;;;;;5031742;28;20053;-67
2021/12/01 03:42:34;;;;;;;1.17;0.50;;;;;;;;;;5031514;28;20057;-67
2021/12/01 03:45:01;;;;;;;0.80;0.40;;;;;;;;;;5032171;28;20046;-67
2021/12/01 03:47:30;;;;;;;1.38;0.60;;;;;;;;;;5031649;28;20050;-67
2021/12/01 03:49:57;;;;;;;2.10;0.55;;;;;;;;;;5031757;28;20049;-67
2021/12/01 03:52:24;;;;;;;1.30;0.60;;;;;;;;;;5031700;28;20529;-67
2021/12/01 03:54:53;;;;;;;0.75;0.52;;;;;;;;;;5035387;28;20049;-67
2021/12/01 03:57:20;;;;;;;1.00;0.50;;;;;;;;;;5035502;28;20459;-67
2021/12/01 03:59:47;;;;;;;1.58;0.60;;;;;;;;;;5035471;28;20049;-67
2021/12/01 04:02:14;;;;;;;1.35;0.70;;;;;;;;;;5035471;28;20053;-67
2021/12/01 04:04:43;;;;;;;1.42;0.60;;;;;;;;;;5035563;28;20056;-67
2021/12/01 04:07:10;;;;;;;1.58;0.77;;;;;;;;;;5035471;28;20148;-67
2021/12/01 04:09:38;;;;;;;1.00;0.70;;;;;;;;;;5035422;28;20072;-67
2021/12/01 04:12:06;;;;;;;2.13;0.68;;;;;;;;;;5035513;28;20395;-67
2021/12/01 04:14:33;;;;;;;1.48;0.70;;;;;;;;;;5035326;28;20128;-67
2021/12/01 04:17:00;;;;;;;2.05;0.73;;;;;;;;;;5035390;28;20131;-66
2021/12/01 04:19:27;;;;;;;2.03;0.80;;;;;;;;;;5034794;28;20490;-66
2021/12/01 04:21:56;;;;;;;1.70;0.90;;;;;;;;;;5034899;28;20050;-67
2021/12/01 04:24:23;;;;;;;2.55;1.02;;;;;;;;;;5034865;28;20407;-67
2021/12/01 04:26:51;;;;;;;4.03;1.25;;;;;;;;;;5035251;28;20156;-66
2021/12/01 04:29:17;;;;;;;1.70;0.80;;;;;;;;;;5034750;28;20049;-66
2021/12/01 04:31:44;;;;;;;3.78;1.30;;;;;;;;;;5034920;28;20081;-66
2021/12/01 04:34:11;;;;;;;3.72;1.17;;;;;;;;;;5035366;28;20054;-66
2021/12/01 04:36:41;;;;;;;5.20;1.40;;;;;;;;;;5034741;28;20421;-66
2021/12/01 04:39:12;;;;;;;3.38;1.20;;;;;;;;;;5034710;28;20049;-66
2021/12/01 04:41:40;;;;;;;;;;;;;;;;;;5035142;28;20051;-66
2021/12/01 04:44:11;;;;;;;1.38;0.63;;;;;;;;;;5034651;28;19920;-66
2021/12/01 04:46:43;;;;;;;2.40;0.85;;;;;;;;;;5034669;28;20103;-66
2021/12/01 04:49:11;;;;;;;1.92;0.60;;;;;;;;;;5034175;28;20085;-66
2021/12/01 04:51:40;;;;;;;1.33;0.70;;;;;;;;;;5034667;28;20046;-66
2021/12/01 04:54:09;;;;;;;0.90;0.60;;;;;;;;;;5034669;28;20057;-66
2021/12/01 04:56:37;;;;;;;1.25;0.60;;;;;;;;;;5034374;28;20061;-66
2021/12/01 04:59:04;;;;;;;1.20;0.60;;;;;;;;;;5034090;28;20052;-66
2021/12/01 05:01:31;;;;;;;2.30;0.90;;;;;;;;;;5034163;28;20056;-66
2021/12/01 05:03:58;;;;;;;1.73;0.70;;;;;;;;;;5033614;28;20045;-66
2021/12/01 05:06:25;;;;;;;1.27;0.65;;;;;;;;;;5033918;28;20637;-68
2021/12/01 05:08:52;;;;;;;2.38;1.00;;;;;;;;;;5034249;28;20133;-66
2021/12/01 05:11:20;;;;;;;2.65;0.90;;;;;;;;;;5034107;28;20513;-66
2021/12/01 05:13:47;;;;;;;1.42;0.70;;;;;;;;;;5034216;28;20052;-66
2021/12/01 05:16:14;;;;;;;2.05;0.80;;;;;;;;;;5033913;28;20049;-66
2021/12/01 05:18:41;;;;;;;2.42;0.80;;;;;;;;;;5033741;28;20132;-66
2021/12/01 05:21:08;;;;;;;2.15;0.90;;;;;;;;;;5033928;28;20049;-66
2021/12/01 05:23:35;;;;;;;2.80;1.02;;;;;;;;;;5033826;28;20049;-66
2021/12/01 05:26:02;;;;;;;1.45;0.68;;;;;;;;;;5034032;28;20096;-66
2021/12/01 05:28:31;;;;;;;1.70;0.77;;;;;;;;;;5033485;28;20057;-66
2021/12/01 05:30:58;;;;;;;2.63;0.70;;;;;;;;;;5034081;28;20155;-66
2021/12/01 05:33:25;;;;;;;2.45;0.95;;;;;;;;;;5033632;28;20050;-66
2021/12/01 05:35:52;;;;;;;2.45;1.10;;;;;;;;;;5033487;28;20049;-66
2021/12/01 05:38:19;;;;;;;1.90;0.70;;;;;;;;;;5034055;28;20494;-67
2021/12/01 05:40:47;;;;;;;1.80;0.88;;;;;;;;;;5033695;28;20058;-67
2021/12/01 05:43:14;;;;;;;2.53;1.00;;;;;;;;;;5033575;28;20522;-67
2021/12/01 05:45:43;;;;;;;2.25;0.80;;;;;;;;;;5033287;28;20085;-67
2021/12/01 05:48:10;;;;;;;2.45;1.00;;;;;;;;;;5033197;28;20081;-67
2021/12/01 05:50:37;;;;;;;1.67;0.77;;;;;;;;;;5033385;28;20052;-66
2021/12/01 05:53:05;;;;;;;3.00;1.10;;;;;;;;;;5033508;28;20103;-67
2021/12/01 05:55:32;;;;;;;2.50;1.00;;;;;;;;;;5033274;28;20052;-67
2021/12/01 05:57:59;;;;;;;1.85;0.90;;;;;;;;;;5033310;28;20586;-67
2021/12/01 06:00:26;;;;;;;1.35;0.70;;;;;;;;;;5033482;28;20513;-67
2021/12/01 06:02:54;;;;;;;2.00;0.85;;;;;;;;;;5033466;28;20053;-66
2021/12/01 06:05:22;;;;;;;3.47;1.60;;;;;;;;;;5033274;28;20049;-67
2021/12/01 06:07:50;;;;;;;4.22;1.00;;;;;;;;;;5032981;28;20045;-66
2021/12/01 06:10:18;;;;;;;4.85;1.40;;;;;;;;;;5033424;28;20049;-66
2021/12/01 06:12:46;;;;;;;3.95;1.27;;;;;;;;;;5033394;28;20152;-67
2021/12/01 06:15:16;;;;;;;3.53;1.02;;;;;;;;;;5033012;28;20045;-66
2021/12/01 06:17:43;;;;;;;2.47;1.05;;;;;;;;;;5032601;28;20453;-66
2021/12/01 06:20:13;;;;;;;2.58;1.13;;;;;;;;;;5032899;28;20056;-67
2021/12/01 06:22:40;;;;;;;2.97;0.98;;;;;;;;;;5032951;28;20049;-66
2021/12/01 06:25:08;;;;;;;2.75;1.15;;;;;;;;;;5035138;28;20418;-66
2021/12/01 06:27:35;;;;;;;4.13;1.52;;;;;;;;;;5033728;28;20111;-66
2021/12/01 06:30:03;;;;;;;2.83;1.30;;;;;;;;;;5032815;28;20056;-66
2021/12/01 06:32:30;;;;;;;2.78;1.20;;;;;;;;;;5032822;28;20059;-66
2021/12/01 06:35:00;;;;;;;2.28;1.15;;;;;;;;;;5033810;28;20089;-66
2021/12/01 06:37:28;;;;;;;3.25;1.23;;;;;;;;;;5033656;28;20069;-66
2021/12/01 06:39:55;;;;;;;3.78;1.30;;;;;;;;;;5033508;28;20052;-66
2021/12/01 06:42:22;;;;;;;3.25;1.10;;;;;;;;;;5043939;22;20041;-66
2021/12/01 06:44:49;;;;;;;3.38;1.27;;;;;;;;;;5032166;28;20499;-66
2021/12/01 06:47:17;;;;;;;1.95;0.77;;;;;;;;;;5031907;28;20049;-66
2021/12/01 06:49:45;;;;;;;2.15;1.10;;;;;;;;;;5031685;28;20041;-66
2021/12/01 06:52:13;;;;;;;2.58;1.00;;;;;;;;;;5031860;28;20143;-66
2021/12/01 06:54:41;;;;;;;3.05;1.05;;;;;;;;;;5031977;28;20045;-66
2021/12/01 06:57:08;;;;;;;2.88;1.00;;;;;;;;;;5031819;28;20135;-66
2021/12/01 06:59:35;;;;;;;2.83;1.10;;;;;;;;;;5031727;28;20052;-65
2021/12/01 07:02:02;;;;;;;2.90;1.05;;;;;;;;;;5031969;28;20045;-65
2021/12/01 07:04:30;;;;;;;2.08;1.00;;;;;;;;;;5031885;28;20048;-65
2021/12/01 07:06:58;;;;;;;3.90;1.38;;;;;;;;;;5031576;28;20081;-66
2021/12/01 07:09:25;;;;;;;3.03;1.25;;;;;;;;;;5031521;28;20144;-65
2021/12/01 07:11:54;;;;;;;3.15;1.30;;;;;;;;;;5032183;28;20084;-64
2021/12/01 07:14:21;;;;;;;2.85;1.08;;;;;;;;;;5032962;28;20312;-64
2021/12/01 07:16:48;;;;;;;2.95;1.48;;;;;;;;;;5032249;28;20133;-65
2021/12/01 07:19:15;;;;;;;4.30;1.27;;;;;;;;;;5031637;28;20652;-67
2021/12/01 07:21:42;;;;;;;3.75;1.25;;;;;;;;;;5031719;28;20045;-66
2021/12/01 07:24:09;;;;;;;2.67;1.27;;;;;;;;;;5032281;28;20049;-68
2021/12/01 07:26:36;;;;;;;4.00;1.20;;;;;;;;;;5031747;28;20045;-66
2021/12/01 07:29:05;;;;;;;5.60;1.80;;;;;;;;;;5034665;28;20541;-66
2021/12/01 07:31:32;;;;;;;4.57;1.65;;;;;;;;;;5035915;28;20049;-66
2021/12/01 07:33:59;;;;;;;3.08;1.23;;;;;;;;;;5036111;28;20045;-67
2021/12/01 07:36:26;;;;;;;1.80;0.93;;;;;;;;;;5035991;28;20084;-66
2021/12/01 07:38:53;;;;;;;2.53;0.90;;;;;;;;;;5035728;28;20052;-66
2021/12/01 07:41:20;;;;;;;2.40;1.05;;;;;;;;;;5035458;28;20045;-66
2021/12/01 07:43:47;;;;;;;2.28;1.00;;;;;;;;;;5035829;28;20065;-67
2021/12/01 07:46:16;;;;;;;2.80;0.88;;;;;;;;;;5035663;28;20041;-66
2021/12/01 07:48:43;;;;;;;2.53;1.13;;;;;;;;;;5035446;28;20056;-67
2021/12/01 07:51:10;;;;;;;2.20;1.05;;;;;;;;;;5035579;28;20056;-66
2021/12/01 07:53:37;;;;;;;3.03;1.00;;;;;;;;;;5035659;28;20060;-66
2021/12/01 07:56:05;;;;;;;1.80;1.00;;;;;;;;;;5035497;28;20045;-66
2021/12/01 07:58:32;;;;;;;2.30;1.02;;;;;;;;;;5035658;28;20071;-66
2021/12/01 08:00:59;;;;;;;4.00;1.13;;;;;;;;;;5035111;28;20051;-66
2021/12/01 08:03:28;;;;;;;2.55;1.00;;;;;;;;;;5035315;28;20045;-67
2021/12/01 08:05:55;;;;;;;4.28;1.00;;;;;;;;;;5028885;28;20045;-66
2021/12/01 08:08:22;;;;;;;2.75;1.20;;;;;;;;;;5021829;28;20045;-66
2021/12/01 08:10:49;;;;;;;2.70;1.10;;;;;;;;;;5031640;28;20041;-66
2021/12/01 08:13:16;;;;;;;2.72;1.10;;;;;;;;;;5013707;28;20061;-66
2021/12/01 08:15:45;;;;;;;2.55;1.20;;;;;;;;;;5031723;28;20054;-67
2021/12/01 08:18:12;;;;;;;2.75;1.20;;;;;;;;;;5033505;28;20041;-66
2021/12/01 08:20:40;;;;;;;2.45;1.10;;;;;;;;;;5019574;28;20053;-66
2021/12/01 08:23:07;;;;;;;2.45;1.17;;;;;;;;;;5013218;28;20042;-66
2021/12/01 08:25:35;;;;;;;3.22;1.08;;;;;;;;;;5013552;28;20041;-67
2021/12/01 08:28:02;;;;;;;3.70;1.30;;;;;;;;;;5017959;28;20046;-65
2021/12/01 08:30:30;;;;;;;2.25;1.17;;;;;;;;;;5013068;28;20054;-66
2021/12/01 08:32:57;;;;;;;2.30;1.00;;;;;;;;;;5028835;28;20128;-66
2021/12/01 08:35:24;;;;;;;2.80;1.35;;;;;;;;;;5033158;28;20045;-65
2021/12/01 08:37:53;;;;;;;2.63;1.10;;;;;;;;;;5014875;28;20092;-67
2021/12/01 08:40:20;;;;;;;2.83;1.00;;;;;;;;;;5020519;28;20084;-67
2021/12/01 08:42:48;;;;;;;3.30;1.10;;;;;;;;;;5020734;28;20474;-67
2021/12/01 08:45:15;;;;;;;1.95;0.90;;;;;;;;;;5013173;28;20053;-66
2021/12/01 08:47:42;;;;;;;2.92;1.30;;;;;;;;;;5027458;28;20052;-65
2021/12/01 08:50:11;;;;;;;3.28;1.20;;;;;;;;;;5022327;28;20046;-66
2021/12/01 08:52:39;;;;;;;3.85;1.23;;;;;;;;;;5013330;28;20054;-67
2021/12/01 08:55:09;;;;;;;2.67;1.20;;;;;;;;;;5015813;28;20054;-65
2021/12/01 08:57:36;;;;;;;3.10;0.90;;;;;;;;;;5030375;28;20540;-68
2021/12/01 09:00:05;;;;;;;2.28;1.20;;;;;;;;;;5024843;28;20120;-66
2021/12/01 09:02:32;;;;;;;2.03;0.98;;;;;;;;;;5032502;28;20056;-66
2021/12/01 09:04:59;;;;;;;1.73;0.90;;;;;;;;;;5032315;28;20425;-66
2021/12/01 09:07:26;;;;;;;2.42;1.10;;;;;;;;;;5032614;28;20053;-66
2021/12/01 09:09:53;;;;;;;2.05;1.02;;;;;;;;;;5032375;28;20041;-64
2021/12/01 09:12:21;;;;;;;3.08;1.15;;;;;;;;;;5032435;28;20417;-66
2021/12/01 09:14:48;;;;;;;2.80;1.15;;;;;;;;;;5032580;28;20136;-66
2021/12/01 09:17:15;;;;;;;4.68;1.50;;;;;;;;;;5032412;28;20049;-66
2021/12/01 09:19:43;;;;;;;1.90;0.80;;;;;;;;;;5032575;28;20045;-66
2021/12/01 09:22:10;;;;;;;2.22;0.90;;;;;;;;;;5032488;28;20065;-66
2021/12/01 09:24:38;;;;;;;2.53;1.00;;;;;;;;;;5020889;28;20148;-66
2021/12/01 09:27:06;;;;;;;2.97;1.08;;;;;;;;;;5012288;28;20050;-66
2021/12/01 09:29:35;;;;;;;2.08;1.10;;;;;;;;;;5024116;28;20061;-67
2021/12/01 09:32:02;;;;;;;1.88;1.00;;;;;;;;;;5021734;28;20054;-65
2021/12/01 09:34:29;;;;;;;3.58;1.33;;;;;;;;;;5021525;28;20100;-67
2021/12/01 09:36:56;;;;;;;1.65;0.80;;;;;;;;;;5024280;28;20037;-70
2021/12/01 09:39:25;;;;;;;2.45;1.02;;;;;;;;;;5020578;28;20061;-66
2021/12/01 09:41:54;;;;;;;2.88;1.10;;;;;;;;;;5032055;28;20564;-66
2021/12/01 09:44:21;;;;;;;3.60;1.10;;;;;;;;;;5031783;28;20049;-66
2021/12/01 09:46:49;;;;;;;3.97;1.15;;;;;;;;;;5031876;28;20049;-67
2021/12/01 09:49:16;;;;;;;1.92;0.90;;;;;;;;;;5026155;28;20052;-66
2021/12/01 09:51:43;;;;;;;2.33;1.00;;;;;;;;;;5025983;28;20056;-66
2021/12/01 09:54:10;;;;;;;2.28;1.20;;;;;;;;;;5031850;28;20056;-67
2021/12/01 09:56:37;;;;;;;2.60;1.10;;;;;;;;;;5032113;28;20081;-67
2021/12/01 09:59:05;;;;;;;1.90;0.90;;;;;;;;;;5031566;28;20060;-67
2021/12/01 10:01:32;;;;;;;4.43;1.42;;;;;;;;;;5031533;28;20458;-67
2021/12/01 10:04:01;;;;;;;2.17;0.90;;;;;;;;;;5031160;28;20111;-64
2021/12/01 10:06:28;;;;;;;2.90;1.13;;;;;;;;;;5031208;28;20042;-66
2021/12/01 10:08:57;;;;;;;2.45;1.10;;;;;;;;;;5031215;28;20482;-66
2021/12/01 10:11:26;;;;;;;2.10;0.93;;;;;;;;;;5030958;28;20053;-66
2021/12/01 10:13:56;;;;;;;2.92;1.00;;;;;;;;;;5031511;28;20132;-66
2021/12/01 10:16:25;;;;;;;2.45;0.95;;;;;;;;;;5031434;28;20553;-67
2021/12/01 10:18:54;;;;;;;2.35;1.05;;;;;;;;;;5030814;28;20500;-66
2021/12/01 10:21:24;;;;;;;2.13;0.88;;;;;;;;;;5030742;28;20045;-66
2021/12/01 10:23:53;;;;;;;2.10;0.98;;;;;;;;;;5031219;28;20046;-67
2021/12/01 10:26:23;;;;;;;2.20;0.90;;;;;;;;;;5019336;28;20494;-66
2021/12/01 10:28:53;;;;;;;2.75;0.80;;;;;;;;;;5011726;28;20141;-66
2021/12/01 10:31:36;;;;;;;2.05;0.90;;;;;;;;;;5011308;28;20069;-67
2021/12/01 10:34:21;;;;;;;2.70;0.93;;;;;;;;;;5011034;28;20056;-67
2021/12/01 10:36:51;;;;;;;1.95;0.90;;;;;;;;;;5011211;28;20046;-66
2021/12/01 10:39:19;;;;;;;3.03;1.05;;;;;;;;;;5010788;28;20567;-67
2021/12/01 10:41:46;;;;;;;3.05;1.00;;;;;;;;;;5010335;28;20141;-66
2021/12/01 10:44:14;;;;;;;1.90;0.90;;;;;;;;;;5010917;28;20056;-66
2021/12/01 10:46:47;;;;;;;3.25;0.70;;;;;;;;;;5010769;28;20137;-67
2021/12/01 10:49:15;;;;;;;3.80;0.85;;;;;;;;;;5010903;28;20497;-67
2021/12/01 10:51:43;;;;;;;2.58;0.80;;;;;;;;;;5010878;28;20053;-66
2021/12/01 10:54:20;;;;;;;3.05;0.90;;;;;;;;;;5011173;28;20050;-67
2021/12/01 10:56:47;;;;;;;0.90;0.70;;;;;;;;;;5010533;28;20053;-68
2021/12/01 10:59:17;;;;;;;1.35;0.60;;;;;;;;;;5010819;28;20081;-67
2021/12/01 11:01:45;;;;;;;1.42;0.75;;;;;;;;;;5010326;28;20049;-66
2021/12/01 11:04:12;;;;;;;3.40;0.90;;;;;;;;;;5010049;28;20050;-67
2021/12/01 11:06:42;;;;;;;1.50;0.60;;;;;;;;;;5010554;28;20311;-68
2021/12/01 11:09:09;;;;;;;1.80;0.70;;;;;;;;;;5010648;28;20046;-67
2021/12/01 11:11:42;;;;;;;2.60;0.57;;;;;;;;;;5010744;28;20050;-68
2021/12/01 11:14:11;;;;;;;1.42;0.80;;;;;;;;;;5011293;28;20052;-67
2021/12/01 11:16:40;;;;;;;2.53;0.70;;;;;;;;;;5010759;28;20202;-66
2021/12/01 11:19:07;;;;;;;1.15;0.55;;;;;;;;;;5023844;28;20049;-67
2021/12/01 11:21:34;;;;;;;1.83;0.70;;;;;;;;;;5030574;28;20172;-67
2021/12/01 11:24:07;;;;;;;1.33;0.60;;;;;;;;;;5030189;28;20053;-67
2021/12/01 11:26:35;;;;;;;1.65;0.70;;;;;;;;;;5030107;28;20053;-67
2021/12/01 11:29:06;;;;;;;3.20;0.70;;;;;;;;;;5027063;28;20519;-66
2021/12/01 11:31:35;;;;;;;2.15;0.80;;;;;;;;;;5010529;28;20042;-66
2021/12/01 11:34:05;;;;;;;1.52;0.85;;;;;;;;;;5010969;28;20506;-67
2021/12/01 11:36:38;;;;;;;1.63;0.60;;;;;;;;;;5012639;28;20125;-73
2021/12/01 11:39:10;;;;;;;1.90;0.80;;;;;;;;;;5030353;28;20049;-67
2021/12/01 11:41:42;;;;;;;2.25;0.80;;;;;;;;;;5030527;28;20045;-67
2021/12/01 11:44:12;;;;;;;2.83;0.88;;;;;;;;;;5018304;28;20077;-68
2021/12/01 11:46:39;;;;;;;3.08;0.90;;;;;;;;;;5013230;28;20546;-70
2021/12/01 11:49:09;;;;;;;2.00;0.85;;;;;;;;;;5013857;28;20172;-71
2021/12/01 11:51:45;;;;;;;1.70;0.80;;;;;;;;;;5019896;28;20046;-71
2021/12/01 11:54:16;;;;;;;2.05;1.00;;;;;;;;;;5024034;28;20061;-66
2021/12/01 11:56:51;;;;;;;2.40;0.90;;;;;;;;;;5026777;28;20084;-68
2021/12/01 11:59:25;;;;;;;2.15;0.90;;;;;;;;;;5020901;28;20057;-67
2021/12/01 12:01:54;;;;;;;2.45;0.77;;;;;;;;;;5021544;28;20049;-65
2021/12/01 12:04:40;;;;;;;5.80;2.10;;;;;;;;;;5019037;28;20060;-67
2021/12/01 12:07:10;;;;;;;2.63;0.95;;;;;;;;;;5010525;28;20499;-67
2021/12/01 12:09:39;;;;;;;5.05;1.95;;;;;;;;;;5018819;28;20050;-68
2021/12/01 12:12:21;;;;;;;1.73;0.80;;;;;;;;;;5021353;28;20073;-66
2021/12/01 12:14:54;;;;;;;3.13;1.42;;;;;;;;;;5028408;28;20046;-66
2021/12/01 12:17:32;;;;;;;2.55;1.05;;;;;;;;;;5029395;28;20120;-66
2021/12/01 12:20:09;;;;;;;2.53;1.55;;;;;;;;;;5025659;28;20128;-67
2021/12/01 12:22:58;;;;;;;1.98;1.00;;;;;;;;;;5029124;28;20045;-66
2021/12/01 12:25:54;;;;;;;2.92;1.30;;;;;;;;;;5021835;28;20073;-67
2021/12/01 12:28:33;;;;;;;2.03;0.80;;;;;;;;;;5014341;28;20064;-65
2021/12/01 12:31:06;;;;;;;3.25;1.00;;;;;;;;;;5014138;28;20134;-67
2021/12/01 12:33:37;;;;;;;3.40;1.15;;;;;;;;;;5014329;28;20054;-66
2021/12/01 12:36:08;;;;;;;2.38;1.20;;;;;;;;;;5013649;28;20072;-68
2021/12/01 12:38:36;;;;;;;3.83;1.17;;;;;;;;;;5014110;28;20054;-68
2021/12/01 12:41:10;;;;;;;2.70;1.00;;;;;;;;;;5013796;28;20133;-66
2021/12/01 12:43:39;;;;;;;2.40;1.10;;;;;;;;;;5014229;28;20530;-68
2021/12/01 12:46:12;;;;;;;2.53;1.25;;;;;;;;;;5013730;28;20576;-67
2021/12/01 12:48:41;;;;;;;1.92;0.93;;;;;;;;;;5013416;28;20073;-66
2021/12/01 12:51:30;;;;;;;1.80;0.80;;;;;;;;;;5013543;28;20061;-67
2021/12/01 12:54:18;;;;;;;2.58;1.02;;;;;;;;;;5013722;28;20046;-68
2021/12/01 12:56:51;;;;;;;1.73;0.80;;;;;;;;;;5013559;28;20419;-65
2021/12/01 12:59:21;;;;;;;2.92;0.80;;;;;;;;;;5031976;28;20187;-65
2021/12/01 13:01:51;;;;;;;1.38;0.70;;;;;;;;;;5033431;28;20073;-66
2021/12/01 13:05:05;;;;;;;1.25;0.70;;;;;;;;;;5033264;28;20506;-65
2021/12/01 13:07:34;;;;;;;1.08;0.70;;;;;;;;;;4993674;28;20050;-67
2021/12/01 13:10:10;;;;;;;2.05;0.70;;;;;;;;;;5012726;28;20049;-67
2021/12/01 13:12:53;;;;;;;2.08;0.73;;;;;;;;;;5012879;28;20081;-68
2021/12/01 13:15:23;;;;;;;1.98;0.80;;;;;;;;;;5012888;28;20052;-65
2021/12/01 13:17:54;;;;;;;2.08;0.75;;;;;;;;;;5012915;28;20495;-66
2021/12/01 13:20:22;;;;;;;1.38;0.60;;;;;;;;;;5012554;28;20046;-67
2021/12/01 13:23:09;;;;;;;2.25;0.90;;;;;;;;;;5012061;28;20115;-66
2021/12/01 13:25:40;;;;;;;3.40;1.20;;;;;;;;;;5011630;28;20081;-66
2021/12/01 13:28:09;;;;;;;3.05;1.40;;;;;;;;;;5030386;28;20057;-66
2021/12/01 13:30:55;;;;;;;1.95;0.80;;;;;;;;;;5012078;28;20133;-66
2021/12/01 13:33:24;;;;;;;2.25;0.90;;;;;;;;;;5023884;28;20502;-67
2021/12/01 13:35:51;;;;;;;1.85;0.70;;;;;;;;;;5018794;28;20400;-67
2021/12/01 13:38:28;;;;;;;3.90;0.82;;;;;;;;;;5028897;28;20061;-67
2021/12/01 13:40:55;;;;;;;1.55;0.60;;;;;;;;;;5019850;28;20077;-68
2021/12/01 13:43:23;;;;;;;2.00;1.00;;;;;;;;;;5023176;28;20046;-66
2021/12/01 13:45:57;;;;;;;1.58;0.60;;;;;;;;;;5020478;28;20407;-67
2021/12/01 13:48:26;;;;;;;2.65;0.90;;;;;;;;;;5021585;28;20060;-67
2021/12/01 13:51:05;;;;;;;1.77;1.23;;;;;;;;;;5021261;28;20045;-67
2021/12/01 13:53:32;;;;;;;2.05;0.90;;;;;;;;;;5012186;28;20046;-67
2021/12/01 13:56:00;;;;;;;1.88;0.60;;;;;;;;;;5024794;28;20057;-67
2021/12/01 13:58:27;;;;;;;1.98;0.80;;;;;;;;;;5028834;28;20063;-66
2021/12/01 14:00:59;;;;;;;1.15;0.60;;;;;;;;;;5021138;28;20049;-67
2021/12/01 14:03:27;;;;;;;1.90;0.85;;;;;;;;;;5022175;28;20056;-67
2021/12/01 14:05:56;;;;;;;1.90;0.80;;;;;;;;;;5018136;28;20072;-68
2021/12/01 14:08:34;;;;;;;2.65;0.90;;;;;;;;;;5014956;28;20510;-67
2021/12/01 14:11:29;;;;;;;1.42;0.70;;;;;;;;;;5023948;28;20052;-66
2021/12/01 14:13:59;;;;;;;2.08;0.63;;;;;;;;;;5007706;28;20059;-67
2021/12/01 14:16:28;;;;;;;2.05;0.70;;;;;;;;;;5026996;28;20050;-66
2021/12/01 14:18:56;;;;;;;1.40;0.70;;;;;;;;;;5016979;28;20058;-67
2021/12/01 14:21:25;;;;;;;2.38;0.70;;;;;;;;;;5016734;28;20446;-67
2021/12/01 14:23:56;;;;;;;1.67;0.93;;;;;;;;;;5023657;28;20049;-67
2021/12/01 14:26:31;;;;;;;3.08;0.80;;;;;;;;;;5018377;28;20056;-66
2021/12/01 14:29:00;;;;;;;2.15;0.70;;;;;;;;;;5015553;28;20042;-66
2021/12/01 14:31:27;;;;;;;1.85;1.00;;;;;;;;;;5020995;28;20070;-66
2021/12/01 14:34:06;;;;;;;3.05;0.93;;;;;;;;;;5024445;28;20458;-66
2021/12/01 14:36:34;;;;;;;2.05;0.60;;;;;;;;;;5021117;28;20076;-66
2021/12/01 14:39:01;;;;;;;5.45;1.45;;;;;;;;;;5023841;28;20041;-67
2021/12/01 14:41:31;;;;;;;1.10;0.70;;;;;;;;;;5017340;28;20145;-70
2021/12/01 14:44:01;;;;;;;2.08;0.80;;;;;;;;;;5025112;28;20060;-64
2021/12/01 14:46:29;;;;;;;1.55;0.77;;;;;;;;;;5030725;28;20056;-66
2021/12/01 14:49:01;;;;;;;1.85;0.70;;;;;;;;;;5031151;28;20041;-65
2021/12/01 14:51:38;;;;;;;2.22;0.70;;;;;;;;;;5030751;28;20045;-67
2021/12/01 14:54:14;;;;;;;4.18;1.00;;;;;;;;;;5030963;28;20088;-66
2021/12/01 14:56:54;;;;;;;1.95;0.75;;;;;;;;;;5031415;28;20404;-66
2021/12/01 14:59:21;;;;;;;1.67;0.77;;;;;;;;;;5031147;28;20096;-65
2021/12/01 15:02:08;;;;;;;2.08;1.00;;;;;;;;;;5031077;28;20076;-66